sensor_id;sensor_type;location;lat;lon;timestamp;temperature;humidity
51867;DHT22;52862;52.504;13.480;2023-11-19T00:00:07;5.20;99.90
51867;DHT22;52862;52.504;13.480;2023-11-19T00:02:37;5.20;99.90
51867;DHT22;52862;52.504;13.480;2023-11-19T00:05:05;5.20;99.90
51867;DHT22;52862;52.504;13.480;2023-11-19T00:07:36;5.10;99.90
51867;DHT22;52862;52.504;13.480;2023-11-19T00:10:04;5.10;99.90
51867;DHT22;52862;52.504;13.480;2023-11-19T00:12:33;5.10;99.90
51867;DHT22;52862;52.504;13.480;2023-11-19T00:14:59;5.10;99.90
51867;DHT22;52862;52.504;13.480;2023-11-19T00:17:26;5.10;99.90
51867;DHT22;52862;52.504;13.480;2023-11-19T00:19:53;5.10;99.90
51867;DHT22;52862;52.504;13.480;2023-11-19T00:22:20;5.10;99.90
51867;DHT22;52862;52.504;13.480;2023-11-19T00:24:49;5.00;99.90
51867;DHT22;52862;52.504;13.480;2023-11-19T00:27:16;5.00;99.90
51867;DHT22;52862;52.504;13.480;2023-11-19T00:29:42;5.10;99.90
51867;DHT22;52862;52.504;13.480;2023-11-19T00:32:11;5.10;99.90
51867;DHT22;52862;52.504;13.480;2023-11-19T00:34:38;5.20;99.90
51867;DHT22;52862;52.504;13.480;2023-11-19T00:37:05;5.20;99.90
51867;DHT22;52862;52.504;13.480;2023-11-19T00:39:33;5.20;99.90
51867;DHT22;52862;52.504;13.480;2023-11-19T00:42:00;5.10;99.90
51867;DHT22;52862;52.504;13.480;2023-11-19T00:44:27;5.20;99.90
51867;DHT22;52862;52.504;13.480;2023-11-19T00:46:54;5.10;99.90
51867;DHT22;52862;52.504;13.480;2023-11-19T00:49:20;5.10;99.90
51867;DHT22;52862;52.504;13.480;2023-11-19T00:51:47;5.10;99.90
51867;DHT22;52862;52.504;13.480;2023-11-19T00:54:15;5.10;99.90
51867;DHT22;52862;52.504;13.480;2023-11-19T00:56:41;5.20;99.90
51867;DHT22;52862;52.504;13.480;2023-11-19T00:59:09;5.20;99.90
51867;DHT22;52862;52.504;13.480;2023-11-19T01:01:36;5.20;99.90
51867;DHT22;52862;52.504;13.480;2023-11-19T01:04:02;5.20;99.90
51867;DHT22;52862;52.504;13.480;2023-11-19T01:06:30;5.20;99.90
51867;DHT22;52862;52.504;13.480;2023-11-19T01:08:57;5.20;99.90
51867;DHT22;52862;52.504;13.480;2023-11-19T01:11:25;5.20;99.90
51867;DHT22;52862;52.504;13.480;2023-11-19T01:13:52;5.20;99.90
51867;DHT22;52862;52.504;13.480;2023-11-19T01:16:20;5.20;99.90
51867;DHT22;52862;52.504;13.480;2023-11-19T01:18:47;5.20;99.90
51867;DHT22;52862;52.504;13.480;2023-11-19T01:21:14;5.20;99.90
51867;DHT22;52862;52.504;13.480;2023-11-19T01:23:41;5.20;99.90
51867;DHT22;52862;52.504;13.480;2023-11-19T01:26:09;5.20;99.90
51867;DHT22;52862;52.504;13.480;2023-11-19T01:28:36;5.20;99.90
51867;DHT22;52862;52.504;13.480;2023-11-19T01:31:17;5.20;99.90
51867;DHT22;52862;52.504;13.480;2023-11-19T01:33:44;5.20;99.90
51867;DHT22;52862;52.504;13.480;2023-11-19T01:36:13;5.30;99.90
51867;DHT22;52862;52.504;13.480;2023-11-19T01:38:40;5.30;99.90
51867;DHT22;52862;52.504;13.480;2023-11-19T01:41:07;5.30;99.90
51867;DHT22;52862;52.504;13.480;2023-11-19T01:43:34;5.30;99.90
51867;DHT22;52862;52.504;13.480;2023-11-19T01:46:02;5.40;99.90
51867;DHT22;52862;52.504;13.480;2023-11-19T01:48:30;5.30;99.90
51867;DHT22;52862;52.504;13.480;2023-11-19T01:51:00;5.30;99.90
51867;DHT22;52862;52.504;13.480;2023-11-19T01:53:30;5.50;99.90
51867;DHT22;52862;52.504;13.480;2023-11-19T01:55:57;5.30;99.90
51867;DHT22;52862;52.504;13.480;2023-11-19T01:58:24;5.30;99.90
51867;DHT22;52862;52.504;13.480;2023-11-19T02:00:51;5.30;99.90
51867;DHT22;52862;52.504;13.480;2023-11-19T02:03:19;5.30;99.90
51867;DHT22;52862;52.504;13.480;2023-11-19T02:05:48;5.30;99.90
51867;DHT22;52862;52.504;13.480;2023-11-19T02:08:17;5.30;99.90
51867;DHT22;52862;52.504;13.480;2023-11-19T02:10:44;5.30;99.90
51867;DHT22;52862;52.504;13.480;2023-11-19T02:13:11;5.30;99.90
51867;DHT22;52862;52.504;13.480;2023-11-19T02:15:40;5.40;99.90
51867;DHT22;52862;52.504;13.480;2023-11-19T02:18:20;5.40;99.90
51867;DHT22;52862;52.504;13.480;2023-11-19T02:20:48;4.70;99.90
51867;DHT22;52862;52.504;13.480;2023-11-19T02:23:18;5.30;99.90
51867;DHT22;52862;52.504;13.480;2023-11-19T02:25:53;5.30;99.90
51867;DHT22;52862;52.504;13.480;2023-11-19T02:28:22;5.30;99.90
51867;DHT22;52862;52.504;13.480;2023-11-19T02:30:49;5.30;99.90
51867;DHT22;52862;52.504;13.480;2023-11-19T02:33:16;5.30;99.90
51867;DHT22;52862;52.504;13.480;2023-11-19T02:35:43;5.30;99.90
51867;DHT22;52862;52.504;13.480;2023-11-19T02:38:09;5.40;99.90
51867;DHT22;52862;52.504;13.480;2023-11-19T02:40:37;5.30;99.90
51867;DHT22;52862;52.504;13.480;2023-11-19T02:43:03;5.20;99.90
51867;DHT22;52862;52.504;13.480;2023-11-19T02:45:32;5.40;99.90
51867;DHT22;52862;52.504;13.480;2023-11-19T02:47:59;5.40;99.90
51867;DHT22;52862;52.504;13.480;2023-11-19T02:50:28;5.30;99.90
51867;DHT22;52862;52.504;13.480;2023-11-19T02:52:56;5.40;99.90
51867;DHT22;52862;52.504;13.480;2023-11-19T02:55:23;5.40;99.90
51867;DHT22;52862;52.504;13.480;2023-11-19T02:57:51;5.50;99.90
51867;DHT22;52862;52.504;13.480;2023-11-19T03:00:20;5.40;99.90
51867;DHT22;52862;52.504;13.480;2023-11-19T03:02:51;5.50;99.90
51867;DHT22;52862;52.504;13.480;2023-11-19T03:05:26;5.60;99.90
51867;DHT22;52862;52.504;13.480;2023-11-19T03:07:55;5.30;99.90
51867;DHT22;52862;52.504;13.480;2023-11-19T03:10:22;5.60;99.90
51867;DHT22;52862;52.504;13.480;2023-11-19T03:12:49;5.50;99.90
51867;DHT22;52862;52.504;13.480;2023-11-19T03:15:16;5.60;99.90
51867;DHT22;52862;52.504;13.480;2023-11-19T03:17:43;5.60;99.90
51867;DHT22;52862;52.504;13.480;2023-11-19T03:20:11;5.60;99.90
51867;DHT22;52862;52.504;13.480;2023-11-19T03:22:41;5.60;99.90
51867;DHT22;52862;52.504;13.480;2023-11-19T03:25:08;5.50;99.90
51867;DHT22;52862;52.504;13.480;2023-11-19T03:27:35;5.70;99.90
51867;DHT22;52862;52.504;13.480;2023-11-19T03:30:03;5.70;99.90
51867;DHT22;52862;52.504;13.480;2023-11-19T03:32:31;5.70;99.90
51867;DHT22;52862;52.504;13.480;2023-11-19T03:34:58;5.50;99.90
51867;DHT22;52862;52.504;13.480;2023-11-19T03:37:27;5.70;99.90
51867;DHT22;52862;52.504;13.480;2023-11-19T03:39:54;5.70;99.90
51867;DHT22;52862;52.504;13.480;2023-11-19T03:42:21;5.80;99.90
51867;DHT22;52862;52.504;13.480;2023-11-19T03:44:48;5.70;99.90
51867;DHT22;52862;52.504;13.480;2023-11-19T03:47:15;5.70;99.90
51867;DHT22;52862;52.504;13.480;2023-11-19T03:49:42;5.60;99.90
51867;DHT22;52862;52.504;13.480;2023-11-19T03:52:10;5.50;99.90
51867;DHT22;52862;52.504;13.480;2023-11-19T03:54:47;5.40;99.90
51867;DHT22;52862;52.504;13.480;2023-11-19T03:57:14;5.30;99.90
51867;DHT22;52862;52.504;13.480;2023-11-19T03:59:41;5.30;99.90
51867;DHT22;52862;52.504;13.480;2023-11-19T04:02:08;5.20;99.90
51867;DHT22;52862;52.504;13.480;2023-11-19T04:04:35;5.20;99.90
51867;DHT22;52862;52.504;13.480;2023-11-19T04:07:02;5.20;99.90
51867;DHT22;52862;52.504;13.480;2023-11-19T04:09:29;5.20;99.90
51867;DHT22;52862;52.504;13.480;2023-11-19T04:11:57;5.10;99.90
51867;DHT22;52862;52.504;13.480;2023-11-19T04:14:24;5.10;99.90
51867;DHT22;52862;52.504;13.480;2023-11-19T04:16:50;5.10;99.90
51867;DHT22;52862;52.504;13.480;2023-11-19T04:19:17;5.10;99.90
51867;DHT22;52862;52.504;13.480;2023-11-19T04:21:44;5.00;99.90
51867;DHT22;52862;52.504;13.480;2023-11-19T04:24:11;5.10;99.90
51867;DHT22;52862;52.504;13.480;2023-11-19T04:26:40;5.10;99.90
51867;DHT22;52862;52.504;13.480;2023-11-19T04:29:09;5.10;99.90
51867;DHT22;52862;52.504;13.480;2023-11-19T04:31:37;5.10;99.90
51867;DHT22;52862;52.504;13.480;2023-11-19T04:34:04;5.10;99.90
51867;DHT22;52862;52.504;13.480;2023-11-19T04:36:32;5.10;99.90
51867;DHT22;52862;52.504;13.480;2023-11-19T04:38:59;5.10;99.90
51867;DHT22;52862;52.504;13.480;2023-11-19T04:41:26;5.00;99.90
51867;DHT22;52862;52.504;13.480;2023-11-19T04:43:54;5.10;99.90
51867;DHT22;52862;52.504;13.480;2023-11-19T04:46:21;5.20;99.90
51867;DHT22;52862;52.504;13.480;2023-11-19T04:48:48;5.10;99.90
51867;DHT22;52862;52.504;13.480;2023-11-19T04:51:15;5.10;99.90
51867;DHT22;52862;52.504;13.480;2023-11-19T04:53:43;5.10;99.90
51867;DHT22;52862;52.504;13.480;2023-11-19T04:56:10;5.20;99.90
51867;DHT22;52862;52.504;13.480;2023-11-19T04:58:37;5.10;99.90
51867;DHT22;52862;52.504;13.480;2023-11-19T05:01:04;5.10;99.90
51867;DHT22;52862;52.504;13.480;2023-11-19T05:03:32;5.20;99.90
51867;DHT22;52862;52.504;13.480;2023-11-19T05:05:59;5.20;99.90
51867;DHT22;52862;52.504;13.480;2023-11-19T05:08:26;5.10;99.90
51867;DHT22;52862;52.504;13.480;2023-11-19T05:10:53;5.00;99.90
51867;DHT22;52862;52.504;13.480;2023-11-19T05:13:20;5.00;99.90
51867;DHT22;52862;52.504;13.480;2023-11-19T05:15:46;5.00;99.90
51867;DHT22;52862;52.504;13.480;2023-11-19T05:18:13;5.00;99.90
51867;DHT22;52862;52.504;13.480;2023-11-19T05:20:40;5.00;99.90
51867;DHT22;52862;52.504;13.480;2023-11-19T05:23:07;5.00;99.90
51867;DHT22;52862;52.504;13.480;2023-11-19T05:25:47;5.00;99.90
51867;DHT22;52862;52.504;13.480;2023-11-19T05:28:14;5.00;99.90
51867;DHT22;52862;52.504;13.480;2023-11-19T05:30:41;5.00;99.90
51867;DHT22;52862;52.504;13.480;2023-11-19T05:33:07;5.00;99.90
51867;DHT22;52862;52.504;13.480;2023-11-19T05:35:34;5.00;99.90
51867;DHT22;52862;52.504;13.480;2023-11-19T05:38:02;5.00;99.90
51867;DHT22;52862;52.504;13.480;2023-11-19T05:40:29;5.00;99.90
51867;DHT22;52862;52.504;13.480;2023-11-19T05:42:56;4.80;99.90
51867;DHT22;52862;52.504;13.480;2023-11-19T05:45:23;5.00;99.90
51867;DHT22;52862;52.504;13.480;2023-11-19T05:47:49;5.00;99.90
51867;DHT22;52862;52.504;13.480;2023-11-19T05:50:18;5.10;99.90
51867;DHT22;52862;52.504;13.480;2023-11-19T05:52:44;5.10;99.90
51867;DHT22;52862;52.504;13.480;2023-11-19T05:55:12;5.10;99.90
51867;DHT22;52862;52.504;13.480;2023-11-19T05:57:40;5.10;99.90
51867;DHT22;52862;52.504;13.480;2023-11-19T06:00:11;5.10;99.90
51867;DHT22;52862;52.504;13.480;2023-11-19T06:02:39;5.10;99.90
51867;DHT22;52862;52.504;13.480;2023-11-19T06:05:06;5.10;99.90
51867;DHT22;52862;52.504;13.480;2023-11-19T06:07:34;5.10;99.90
51867;DHT22;52862;52.504;13.480;2023-11-19T06:10:02;5.20;99.90
51867;DHT22;52862;52.504;13.480;2023-11-19T06:12:30;5.20;99.90
51867;DHT22;52862;52.504;13.480;2023-11-19T06:15:00;5.20;99.90
51867;DHT22;52862;52.504;13.480;2023-11-19T06:17:27;5.20;99.90
51867;DHT22;52862;52.504;13.480;2023-11-19T06:19:54;5.20;99.90
51867;DHT22;52862;52.504;13.480;2023-11-19T06:22:21;5.20;99.90
51867;DHT22;52862;52.504;13.480;2023-11-19T06:24:48;5.20;99.90
51867;DHT22;52862;52.504;13.480;2023-11-19T06:27:15;5.20;99.90
51867;DHT22;52862;52.504;13.480;2023-11-19T06:29:42;5.20;99.90
51867;DHT22;52862;52.504;13.480;2023-11-19T06:32:09;5.00;99.90
51867;DHT22;52862;52.504;13.480;2023-11-19T06:34:39;5.20;99.90
51867;DHT22;52862;52.504;13.480;2023-11-19T06:37:05;5.20;99.90
51867;DHT22;52862;52.504;13.480;2023-11-19T06:39:32;5.20;99.90
51867;DHT22;52862;52.504;13.480;2023-11-19T06:42:01;5.20;99.90
51867;DHT22;52862;52.504;13.480;2023-11-19T06:44:28;5.30;99.90
51867;DHT22;52862;52.504;13.480;2023-11-19T06:46:55;5.30;99.90
51867;DHT22;52862;52.504;13.480;2023-11-19T06:49:22;5.20;99.90
51867;DHT22;52862;52.504;13.480;2023-11-19T06:51:50;5.30;99.90
51867;DHT22;52862;52.504;13.480;2023-11-19T06:54:16;5.30;99.90
51867;DHT22;52862;52.504;13.480;2023-11-19T06:56:43;5.30;99.90
51867;DHT22;52862;52.504;13.480;2023-11-19T06:59:11;5.40;99.90
51867;DHT22;52862;52.504;13.480;2023-11-19T07:01:38;5.40;99.90
51867;DHT22;52862;52.504;13.480;2023-11-19T07:04:06;5.40;99.90
51867;DHT22;52862;52.504;13.480;2023-11-19T07:06:35;5.50;99.90
51867;DHT22;52862;52.504;13.480;2023-11-19T07:09:03;5.50;99.90
51867;DHT22;52862;52.504;13.480;2023-11-19T07:11:35;5.50;99.90
51867;DHT22;52862;52.504;13.480;2023-11-19T07:14:03;5.50;99.90
51867;DHT22;52862;52.504;13.480;2023-11-19T07:16:30;5.50;99.90
51867;DHT22;52862;52.504;13.480;2023-11-19T07:18:57;5.50;99.90
51867;DHT22;52862;52.504;13.480;2023-11-19T07:21:25;5.50;99.90
51867;DHT22;52862;52.504;13.480;2023-11-19T07:23:52;5.60;99.90
51867;DHT22;52862;52.504;13.480;2023-11-19T07:26:19;5.50;99.90
51867;DHT22;52862;52.504;13.480;2023-11-19T07:28:46;5.60;99.90
51867;DHT22;52862;52.504;13.480;2023-11-19T07:31:13;5.60;99.90
51867;DHT22;52862;52.504;13.480;2023-11-19T07:33:40;5.70;99.90
51867;DHT22;52862;52.504;13.480;2023-11-19T07:36:09;5.80;99.90
51867;DHT22;52862;52.504;13.480;2023-11-19T07:38:37;5.70;99.90
51867;DHT22;52862;52.504;13.480;2023-11-19T07:41:05;5.70;99.90
51867;DHT22;52862;52.504;13.480;2023-11-19T07:43:32;5.70;99.90
51867;DHT22;52862;52.504;13.480;2023-11-19T07:45:59;5.70;99.90
51867;DHT22;52862;52.504;13.480;2023-11-19T07:48:26;5.80;99.90
51867;DHT22;52862;52.504;13.480;2023-11-19T07:50:53;5.80;99.90
51867;DHT22;52862;52.504;13.480;2023-11-19T07:53:20;5.80;99.90
51867;DHT22;52862;52.504;13.480;2023-11-19T07:55:47;5.80;99.90
51867;DHT22;52862;52.504;13.480;2023-11-19T07:58:14;5.80;99.90
51867;DHT22;52862;52.504;13.480;2023-11-19T08:00:41;5.90;99.90
51867;DHT22;52862;52.504;13.480;2023-11-19T08:03:07;5.90;99.90
51867;DHT22;52862;52.504;13.480;2023-11-19T08:05:35;5.90;99.90
51867;DHT22;52862;52.504;13.480;2023-11-19T08:08:02;5.90;99.90
51867;DHT22;52862;52.504;13.480;2023-11-19T08:10:29;6.00;99.90
51867;DHT22;52862;52.504;13.480;2023-11-19T08:12:56;6.00;99.90
51867;DHT22;52862;52.504;13.480;2023-11-19T08:15:23;6.00;99.90
51867;DHT22;52862;52.504;13.480;2023-11-19T08:17:53;6.10;99.90
51867;DHT22;52862;52.504;13.480;2023-11-19T08:20:20;6.10;99.90
51867;DHT22;52862;52.504;13.480;2023-11-19T08:22:46;6.10;99.90
51867;DHT22;52862;52.504;13.480;2023-11-19T08:25:13;6.20;99.90
51867;DHT22;52862;52.504;13.480;2023-11-19T08:27:40;6.20;99.90
51867;DHT22;52862;52.504;13.480;2023-11-19T08:30:08;6.20;99.90
51867;DHT22;52862;52.504;13.480;2023-11-19T08:32:35;6.20;99.90
51867;DHT22;52862;52.504;13.480;2023-11-19T08:35:03;6.30;99.90
51867;DHT22;52862;52.504;13.480;2023-11-19T08:37:30;6.40;99.90
51867;DHT22;52862;52.504;13.480;2023-11-19T08:39:57;6.30;99.90
51867;DHT22;52862;52.504;13.480;2023-11-19T08:42:24;7.40;99.90
51867;DHT22;52862;52.504;13.480;2023-11-19T08:44:51;6.30;99.90
51867;DHT22;52862;52.504;13.480;2023-11-19T08:47:21;7.50;99.90
51867;DHT22;52862;52.504;13.480;2023-11-19T08:49:50;7.90;99.90
51867;DHT22;52862;52.504;13.480;2023-11-19T08:52:21;7.60;99.90
51867;DHT22;52862;52.504;13.480;2023-11-19T08:54:47;7.30;99.90
51867;DHT22;52862;52.504;13.480;2023-11-19T08:57:14;7.30;99.90
51867;DHT22;52862;52.504;13.480;2023-11-19T08:59:41;7.20;99.90
51867;DHT22;52862;52.504;13.480;2023-11-19T09:02:08;7.10;99.90
51867;DHT22;52862;52.504;13.480;2023-11-19T09:04:36;7.20;99.90
51867;DHT22;52862;52.504;13.480;2023-11-19T09:07:03;7.90;99.90
51867;DHT22;52862;52.504;13.480;2023-11-19T09:09:30;7.80;99.90
51867;DHT22;52862;52.504;13.480;2023-11-19T09:12:02;7.60;99.90
51867;DHT22;52862;52.504;13.480;2023-11-19T09:14:29;7.40;99.90
51867;DHT22;52862;52.504;13.480;2023-11-19T09:16:56;7.50;99.90
51867;DHT22;52862;52.504;13.480;2023-11-19T09:19:24;7.30;99.90
51867;DHT22;52862;52.504;13.480;2023-11-19T09:21:53;7.30;99.90
51867;DHT22;52862;52.504;13.480;2023-11-19T09:24:19;7.30;99.90
51867;DHT22;52862;52.504;13.480;2023-11-19T09:26:46;7.30;99.90
51867;DHT22;52862;52.504;13.480;2023-11-19T09:29:13;7.40;99.90
51867;DHT22;52862;52.504;13.480;2023-11-19T09:31:40;7.40;99.90
51867;DHT22;52862;52.504;13.480;2023-11-19T09:34:07;7.60;99.90
51867;DHT22;52862;52.504;13.480;2023-11-19T09:36:34;7.70;99.90
51867;DHT22;52862;52.504;13.480;2023-11-19T09:39:02;7.70;99.90
51867;DHT22;52862;52.504;13.480;2023-11-19T09:41:30;7.80;99.90
51867;DHT22;52862;52.504;13.480;2023-11-19T09:43:58;8.00;99.90
51867;DHT22;52862;52.504;13.480;2023-11-19T09:46:25;8.20;99.90
51867;DHT22;52862;52.504;13.480;2023-11-19T09:48:53;8.30;99.90
51867;DHT22;52862;52.504;13.480;2023-11-19T09:51:21;8.30;99.90
51867;DHT22;52862;52.504;13.480;2023-11-19T09:53:48;8.50;99.90
51867;DHT22;52862;52.504;13.480;2023-11-19T09:56:17;8.90;99.90
51867;DHT22;52862;52.504;13.480;2023-11-19T09:58:44;9.00;99.90
51867;DHT22;52862;52.504;13.480;2023-11-19T10:01:11;9.20;99.90
51867;DHT22;52862;52.504;13.480;2023-11-19T10:03:42;9.50;99.90
51867;DHT22;52862;52.504;13.480;2023-11-19T10:06:10;9.50;99.90
51867;DHT22;52862;52.504;13.480;2023-11-19T10:08:38;9.50;99.90
51867;DHT22;52862;52.504;13.480;2023-11-19T10:11:06;9.30;99.90
51867;DHT22;52862;52.504;13.480;2023-11-19T10:13:34;9.50;99.90
51867;DHT22;52862;52.504;13.480;2023-11-19T10:16:04;9.50;99.90
51867;DHT22;52862;52.504;13.480;2023-11-19T10:18:33;9.60;99.90
51867;DHT22;52862;52.504;13.480;2023-11-19T10:21:06;9.50;99.90
51867;DHT22;52862;52.504;13.480;2023-11-19T10:23:48;9.60;99.90
51867;DHT22;52862;52.504;13.480;2023-11-19T10:26:16;9.70;99.90
51867;DHT22;52862;52.504;13.480;2023-11-19T10:28:43;10.20;99.90
51867;DHT22;52862;52.504;13.480;2023-11-19T10:31:12;10.70;99.90
51867;DHT22;52862;52.504;13.480;2023-11-19T10:33:39;11.10;99.90
51867;DHT22;52862;52.504;13.480;2023-11-19T10:36:07;11.00;99.90
51867;DHT22;52862;52.504;13.480;2023-11-19T10:38:34;11.60;99.90
51867;DHT22;52862;52.504;13.480;2023-11-19T10:41:01;12.00;99.90
51867;DHT22;52862;52.504;13.480;2023-11-19T10:43:28;11.60;99.90
51867;DHT22;52862;52.504;13.480;2023-11-19T10:46:09;11.50;99.90
51867;DHT22;52862;52.504;13.480;2023-11-19T10:48:36;11.10;99.90
51867;DHT22;52862;52.504;13.480;2023-11-19T10:51:05;11.10;99.90
51867;DHT22;52862;52.504;13.480;2023-11-19T10:53:36;10.90;99.90
51867;DHT22;52862;52.504;13.480;2023-11-19T10:56:06;11.10;99.90
51867;DHT22;52862;52.504;13.480;2023-11-19T10:58:37;11.00;99.90
51867;DHT22;52862;52.504;13.480;2023-11-19T11:01:13;11.00;99.90
51867;DHT22;52862;52.504;13.480;2023-11-19T11:03:40;11.10;99.90
51867;DHT22;52862;52.504;13.480;2023-11-19T11:06:08;11.20;99.90
51867;DHT22;52862;52.504;13.480;2023-11-19T11:08:37;11.20;99.90
51867;DHT22;52862;52.504;13.480;2023-11-19T11:11:06;11.40;99.90
51867;DHT22;52862;52.504;13.480;2023-11-19T11:13:34;11.10;99.90
51867;DHT22;52862;52.504;13.480;2023-11-19T11:16:02;11.10;99.90
51867;DHT22;52862;52.504;13.480;2023-11-19T11:18:31;10.80;99.90
51867;DHT22;52862;52.504;13.480;2023-11-19T11:21:02;11.20;99.90
51867;DHT22;52862;52.504;13.480;2023-11-19T11:23:55;11.50;99.90
51867;DHT22;52862;52.504;13.480;2023-11-19T11:26:39;12.20;99.90
51867;DHT22;52862;52.504;13.480;2023-11-19T11:29:20;12.60;99.90
51867;DHT22;52862;52.504;13.480;2023-11-19T11:32:03;12.90;99.90
51867;DHT22;52862;52.504;13.480;2023-11-19T11:34:51;12.90;99.90
51867;DHT22;52862;52.504;13.480;2023-11-19T11:37:30;12.80;99.90
51867;DHT22;52862;52.504;13.480;2023-11-19T11:40:01;12.90;99.90
51867;DHT22;52862;52.504;13.480;2023-11-19T11:42:33;13.40;99.90
51867;DHT22;52862;52.504;13.480;2023-11-19T11:45:02;13.20;99.90
51867;DHT22;52862;52.504;13.480;2023-11-19T11:48:06;13.10;99.90
51867;DHT22;52862;52.504;13.480;2023-11-19T11:50:47;12.50;99.90
51867;DHT22;52862;52.504;13.480;2023-11-19T11:53:16;12.70;99.90
51867;DHT22;52862;52.504;13.480;2023-11-19T11:55:54;12.00;99.90
51867;DHT22;52862;52.504;13.480;2023-11-19T11:58:26;12.50;99.90
51867;DHT22;52862;52.504;13.480;2023-11-19T12:00:53;12.70;99.90
51867;DHT22;52862;52.504;13.480;2023-11-19T12:03:21;12.70;99.90
51867;DHT22;52862;52.504;13.480;2023-11-19T12:05:49;12.60;99.90
51867;DHT22;52862;52.504;13.480;2023-11-19T12:08:18;12.30;99.90
51867;DHT22;52862;52.504;13.480;2023-11-19T12:10:53;12.30;99.90
51867;DHT22;52862;52.504;13.480;2023-11-19T12:13:21;12.20;99.90
51867;DHT22;52862;52.504;13.480;2023-11-19T12:16:09;12.20;99.90
51867;DHT22;52862;52.504;13.480;2023-11-19T12:18:39;12.20;99.90
51867;DHT22;52862;52.504;13.480;2023-11-19T12:21:08;12.20;99.90
51867;DHT22;52862;52.504;13.480;2023-11-19T12:23:47;12.10;99.90
51867;DHT22;52862;52.504;13.480;2023-11-19T12:26:30;12.20;99.90
51867;DHT22;52862;52.504;13.480;2023-11-19T12:28:58;12.20;99.90
51867;DHT22;52862;52.504;13.480;2023-11-19T12:31:25;12.50;99.90
51867;DHT22;52862;52.504;13.480;2023-11-19T12:33:52;12.40;99.90
51867;DHT22;52862;52.504;13.480;2023-11-19T12:36:20;12.20;99.90
51867;DHT22;52862;52.504;13.480;2023-11-19T12:38:47;12.10;99.90
51867;DHT22;52862;52.504;13.480;2023-11-19T12:41:14;12.10;99.90
51867;DHT22;52862;52.504;13.480;2023-11-19T12:43:43;12.10;99.90
51867;DHT22;52862;52.504;13.480;2023-11-19T12:46:20;12.10;99.90
51867;DHT22;52862;52.504;13.480;2023-11-19T12:48:48;12.00;99.90
51867;DHT22;52862;52.504;13.480;2023-11-19T12:51:15;12.10;99.90
51867;DHT22;52862;52.504;13.480;2023-11-19T12:53:49;11.90;99.90
51867;DHT22;52862;52.504;13.480;2023-11-19T12:56:16;11.90;99.90
51867;DHT22;52862;52.504;13.480;2023-11-19T12:58:43;11.90;99.90
51867;DHT22;52862;52.504;13.480;2023-11-19T13:01:10;12.10;99.90
51867;DHT22;52862;52.504;13.480;2023-11-19T13:03:42;12.80;99.90
51867;DHT22;52862;52.504;13.480;2023-11-19T13:06:11;13.10;99.90
51867;DHT22;52862;52.504;13.480;2023-11-19T13:08:39;13.20;99.90
51867;DHT22;52862;52.504;13.480;2023-11-19T13:11:07;12.90;99.90
51867;DHT22;52862;52.504;13.480;2023-11-19T13:13:55;12.50;99.90
51867;DHT22;52862;52.504;13.480;2023-11-19T13:16:22;12.60;99.90
51867;DHT22;52862;52.504;13.480;2023-11-19T13:18:49;14.00;99.90
51867;DHT22;52862;52.504;13.480;2023-11-19T13:21:16;14.70;99.90
51867;DHT22;52862;52.504;13.480;2023-11-19T13:23:43;14.80;99.90
51867;DHT22;52862;52.504;13.480;2023-11-19T13:26:11;14.60;99.90
51867;DHT22;52862;52.504;13.480;2023-11-19T13:28:38;14.20;99.90
51867;DHT22;52862;52.504;13.480;2023-11-19T13:31:05;14.00;99.90
51867;DHT22;52862;52.504;13.480;2023-11-19T13:33:32;13.40;99.90
51867;DHT22;52862;52.504;13.480;2023-11-19T13:36:00;12.80;99.90
51867;DHT22;52862;52.504;13.480;2023-11-19T13:38:31;12.40;99.90
51867;DHT22;52862;52.504;13.480;2023-11-19T13:40:59;12.30;99.90
51867;DHT22;52862;52.504;13.480;2023-11-19T13:43:26;12.20;99.90
51867;DHT22;52862;52.504;13.480;2023-11-19T13:49:43;12.10;99.90
51867;DHT22;52862;52.504;13.480;2023-11-19T13:52:11;12.00;99.90
51867;DHT22;52862;52.504;13.480;2023-11-19T13:54:38;12.00;99.90
51867;DHT22;52862;52.504;13.480;2023-11-19T13:57:05;12.50;99.90
51867;DHT22;52862;52.504;13.480;2023-11-19T13:59:32;11.90;99.90
51867;DHT22;52862;52.504;13.480;2023-11-19T14:01:59;11.90;99.90
51867;DHT22;52862;52.504;13.480;2023-11-19T14:04:26;11.90;99.90
51867;DHT22;52862;52.504;13.480;2023-11-19T14:06:53;11.90;99.90
51867;DHT22;52862;52.504;13.480;2023-11-19T14:09:21;12.30;99.90
51867;DHT22;52862;52.504;13.480;2023-11-19T14:11:48;11.80;99.90
51867;DHT22;52862;52.504;13.480;2023-11-19T14:14:17;11.70;99.90
51867;DHT22;52862;52.504;13.480;2023-11-19T14:16:46;11.80;99.90
51867;DHT22;52862;52.504;13.480;2023-11-19T14:19:12;11.80;99.90
51867;DHT22;52862;52.504;13.480;2023-11-19T14:21:40;11.80;99.90
51867;DHT22;52862;52.504;13.480;2023-11-19T14:24:07;11.80;99.90
51867;DHT22;52862;52.504;13.480;2023-11-19T14:26:36;11.80;99.90
51867;DHT22;52862;52.504;13.480;2023-11-19T14:29:03;11.80;99.90
51867;DHT22;52862;52.504;13.480;2023-11-19T14:31:29;11.80;99.90
51867;DHT22;52862;52.504;13.480;2023-11-19T14:33:57;11.90;99.90
51867;DHT22;52862;52.504;13.480;2023-11-19T14:36:24;12.60;99.90
51867;DHT22;52862;52.504;13.480;2023-11-19T14:38:51;13.30;99.90
51867;DHT22;52862;52.504;13.480;2023-11-19T14:41:17;13.60;99.90
51867;DHT22;52862;52.504;13.480;2023-11-19T14:43:45;13.80;99.90
51867;DHT22;52862;52.504;13.480;2023-11-19T14:46:13;13.90;99.90
51867;DHT22;52862;52.504;13.480;2023-11-19T14:48:40;13.90;99.90
51867;DHT22;52862;52.504;13.480;2023-11-19T14:51:08;13.30;99.90
51867;DHT22;52862;52.504;13.480;2023-11-19T14:53:34;12.80;99.90
51867;DHT22;52862;52.504;13.480;2023-11-19T14:56:02;12.10;99.90
51867;DHT22;52862;52.504;13.480;2023-11-19T14:58:31;11.90;99.90
51867;DHT22;52862;52.504;13.480;2023-11-19T15:00:57;11.80;99.90
51867;DHT22;52862;52.504;13.480;2023-11-19T15:03:24;11.80;99.90
51867;DHT22;52862;52.504;13.480;2023-11-19T15:05:52;12.00;99.90
51867;DHT22;52862;52.504;13.480;2023-11-19T15:08:21;11.70;99.90
51867;DHT22;52862;52.504;13.480;2023-11-19T15:10:48;11.80;99.90
51867;DHT22;52862;52.504;13.480;2023-11-19T15:13:15;11.80;99.90
51867;DHT22;52862;52.504;13.480;2023-11-19T15:15:42;11.40;99.90
51867;DHT22;52862;52.504;13.480;2023-11-19T15:18:12;11.70;99.90
51867;DHT22;52862;52.504;13.480;2023-11-19T15:20:40;11.70;99.90
51867;DHT22;52862;52.504;13.480;2023-11-19T15:23:07;11.70;99.90
51867;DHT22;52862;52.504;13.480;2023-11-19T15:25:36;11.70;99.90
51867;DHT22;52862;52.504;13.480;2023-11-19T15:28:06;11.70;99.90
51867;DHT22;52862;52.504;13.480;2023-11-19T15:30:33;11.60;99.90
51867;DHT22;52862;52.504;13.480;2023-11-19T15:33:00;11.90;99.90
51867;DHT22;52862;52.504;13.480;2023-11-19T15:35:27;11.50;99.90